Time;durP1;ratioP1;P1;durP2;ratioP2;P2;SDS_P1;SDS_P2;PMS_P1;PMS_P2;Temp;Humidity;BMP_temperature;BMP_pressure;BME280_temperature;BME280_humidity;BME280_pressure;Samples;Min_cycle;Max_cycle;Signal;HPM_P1;HPM_P2
2022/01/09 00:00:25;;;;;;;6.63;3.47;;;0.10;94.20;;;;;;5091436;28;20027;-73
2022/01/09 00:02:52;;;;;;;7.65;3.70;;;0.20;94.20;;;;;;5105345;28;20038;-74
2022/01/09 00:05:18;;;;;;;8.63;3.80;;;0.20;94.00;;;;;;5097345;28;20036;-74
2022/01/09 00:07:44;;;;;;;7.15;4.18;;;0.30;93.40;;;;;;5105473;28;20031;-74
2022/01/09 00:10:11;;;;;;;10.02;4.93;;;0.30;93.50;;;;;;5097750;28;20034;-73
2022/01/09 00:12:37;;;;;;;7.72;4.65;;;0.00;94.00;;;;;;5101390;28;20038;-74
2022/01/09 00:15:04;;;;;;;10.32;4.95;;;0.00;94.50;;;;;;5094168;28;20081;-74
2022/01/09 00:17:30;;;;;;;9.38;5.10;;;0.00;94.70;;;;;;5105573;28;20031;-73
2022/01/09 00:19:55;;;;;;;7.43;3.80;;;-0.20;94.60;;;;;;5096665;28;20065;-74
2022/01/09 00:22:32;;;;;;;9.23;4.15;;;-0.20;94.20;;;;;;5095130;28;20028;-74
2022/01/09 00:24:58;;;;;;;7.78;4.00;;;-0.10;94.10;;;;;;5103217;28;20533;-74
2022/01/09 00:27:24;;;;;;;7.85;4.18;;;0.00;94.10;;;;;;5106177;28;20143;-73
2022/01/09 00:29:49;;;;;;;8.07;3.97;;;0.00;94.20;;;;;;5095900;28;20031;-74
2022/01/09 00:32:15;;;;;;;7.20;3.40;;;0.00;93.90;;;;;;5102180;28;20068;-74
2022/01/09 00:34:41;;;;;;;7.60;3.60;;;0.00;93.80;;;;;;5097736;28;20453;-74
2022/01/09 00:37:06;;;;;;;9.02;4.13;;;0.10;93.30;;;;;;5108758;28;20040;-74
2022/01/09 00:39:32;;;;;;;8.45;3.63;;;0.10;93.90;;;;;;5107497;28;20111;-74
2022/01/09 00:41:58;;;;;;;9.55;3.72;;;0.00;94.20;;;;;;5103692;28;20036;-73
2022/01/09 00:44:23;;;;;;;8.50;4.15;;;-0.10;94.30;;;;;;5104709;28;20076;-74
2022/01/09 00:46:49;;;;;;;6.63;3.83;;;-0.30;94.40;;;;;;5109559;28;20020;-74
2022/01/09 00:49:15;;;;;;;9.43;3.40;;;-0.30;95.10;;;;;;5100629;28;20082;-74
2022/01/09 00:51:40;;;;;;;9.57;4.03;;;-0.30;95.70;;;;;;5107239;28;20059;-74
2022/01/09 00:54:06;;;;;;;6.72;3.45;;;-0.30;95.50;;;;;;5108383;28;20111;-74
2022/01/09 00:56:32;;;;;;;6.60;3.50;;;-0.20;94.60;;;;;;5107852;28;20023;-73
2022/01/09 00:58:57;;;;;;;7.60;3.80;;;0.00;94.00;;;;;;5102214;28;20031;-73
2022/01/09 01:01:23;;;;;;;7.90;4.30;;;-0.10;93.90;;;;;;5103706;28;20034;-74
2022/01/09 01:03:49;;;;;;;7.78;3.22;;;0.00;93.90;;;;;;5109019;28;20032;-73
2022/01/09 01:06:14;;;;;;;6.28;3.08;;;0.10;93.80;;;;;;5105407;28;20601;-73
2022/01/09 01:08:40;;;;;;;6.88;3.80;;;0.10;93.80;;;;;;5105844;28;20031;-73
2022/01/09 01:11:06;;;;;;;7.00;3.13;;;0.20;93.90;;;;;;5101934;28;20039;-73
2022/01/09 01:13:32;;;;;;;6.97;3.53;;;0.10;94.40;;;;;;5103321;28;20024;-73
2022/01/09 01:15:58;;;;;;;7.40;3.47;;;0.10;94.70;;;;;;5100747;28;20090;-73
2022/01/09 01:18:24;;;;;;;11.10;4.43;;;0.10;94.80;;;;;;5113246;28;20055;-73
2022/01/09 01:20:50;;;;;;;7.22;3.65;;;0.00;94.70;;;;;;5104132;28;20168;-74
2022/01/09 01:23:15;;;;;;;7.32;3.42;;;-0.10;94.60;;;;;;5110226;28;20027;-73
2022/01/09 01:25:44;;;;;;;7.18;4.40;;;0.00;94.90;;;;;;5102591;28;20034;-74
2022/01/09 01:28:10;;;;;;;8.35;3.30;;;0.00;95.40;;;;;;5112744;28;20027;-73
2022/01/09 01:30:36;;;;;;;8.05;3.63;;;-0.30;95.90;;;;;;5110288;28;20028;-73
2022/01/09 01:33:02;;;;;;;6.90;3.42;;;-0.30;95.40;;;;;;5105292;28;20108;-73
2022/01/09 01:35:27;;;;;;;8.30;3.67;;;-0.10;94.60;;;;;;5111149;28;20065;-73
2022/01/09 01:37:53;;;;;;;6.63;2.97;;;-0.10;94.30;;;;;;5109805;27;20126;-73
2022/01/09 01:40:22;;;;;;;4.00;2.20;;;-0.10;94.40;;;;;;5110736;28;20035;-73
2022/01/09 01:42:47;;;;;;;4.72;2.58;;;-0.10;94.40;;;;;;5111755;28;20077;-73
2022/01/09 01:45:13;;;;;;;6.55;3.50;;;0.10;93.70;;;;;;5111941;28;20023;-73
2022/01/09 01:47:39;;;;;;;5.90;3.42;;;0.10;93.40;;;;;;5109686;28;20035;-73
2022/01/09 01:50:07;;;;;;;7.32;3.78;;;0.10;93.60;;;;;;5112424;28;20094;-73
2022/01/09 01:52:41;;;;;;;8.88;3.75;;;0.00;93.70;;;;;;5112463;28;20035;-73
2022/01/09 01:55:09;;;;;;;10.17;3.60;;;-0.10;93.90;;;;;;5112301;28;20453;-74
2022/01/09 01:57:38;;;;;;;7.63;3.53;;;-0.10;94.20;;;;;;5109118;28;20277;-73
2022/01/09 02:00:06;;;;;;;6.88;3.45;;;-0.10;94.40;;;;;;5110952;28;20107;-73
2022/01/09 02:02:31;;;;;;;7.00;3.30;;;-0.50;94.10;;;;;;5106839;28;20035;-73
2022/01/09 02:04:57;;;;;;;5.68;3.53;;;-0.60;94.70;;;;;;5106757;28;20039;-73
2022/01/09 02:07:23;;;;;;;5.70;2.83;;;-0.60;95.00;;;;;;5112434;28;20028;-73
2022/01/09 02:09:49;;;;;;;7.67;2.83;;;-0.70;95.10;;;;;;5106299;28;20426;-73
2022/01/09 02:12:15;;;;;;;6.80;2.97;;;-0.70;95.00;;;;;;5112445;28;20030;-73
2022/01/09 02:14:45;;;;;;;5.90;2.70;;;-0.60;94.80;;;;;;5107772;28;20102;-73
2022/01/09 02:17:14;;;;;;;6.35;2.78;;;-0.50;94.50;;;;;;5100670;28;20020;-73
2022/01/09 02:19:51;;;;;;;6.47;2.47;;;-0.50;94.40;;;;;;5101587;28;20027;-74
2022/01/09 02:22:17;;;;;;;9.07;3.13;;;-0.60;94.80;;;;;;5100619;28;20091;-74
2022/01/09 02:24:44;;;;;;;6.20;2.80;;;-0.70;95.10;;;;;;5102607;28;20417;-73
2022/01/09 02:27:10;;;;;;;8.32;4.05;;;-0.60;95.60;;;;;;5110991;28;20031;-73
2022/01/09 02:29:35;;;;;;;7.03;3.30;;;-0.70;95.50;;;;;;5109408;28;20529;-73
2022/01/09 02:32:01;;;;;;;6.03;3.45;;;-0.80;95.40;;;;;;5112091;28;20115;-73
2022/01/09 02:34:27;;;;;;;6.17;3.20;;;-0.80;95.10;;;;;;5110692;28;20040;-73
2022/01/09 02:36:52;;;;;;;5.37;2.50;;;-0.80;94.90;;;;;;5098260;27;20062;-73
2022/01/09 02:39:19;;;;;;;6.20;2.93;;;-0.80;94.80;;;;;;5108114;28;20367;-73
2022/01/09 02:41:45;;;;;;;6.20;2.83;;;-0.70;94.50;;;;;;5108141;28;20069;-74
2022/01/09 02:44:11;;;;;;;5.22;2.80;;;-0.70;94.60;;;;;;5110681;28;20118;-73
2022/01/09 02:49:20;;;;;;;8.70;4.07;;;-0.50;94.30;;;;;;5107341;28;20115;-73
2022/01/09 02:51:46;;;;;;;8.90;3.87;;;-0.40;94.70;;;;;;5103663;28;20111;-73
2022/01/09 02:55:06;;;;;;;6.63;3.87;;;-0.50;94.60;;;;;;5109905;28;20055;-74
2022/01/09 02:56:58;;;;;;;6.80;2.67;;;-0.50;94.10;;;;;;5101345;28;20071;-73
2022/01/09 02:59:24;;;;;;;6.43;3.13;;;-0.30;93.50;;;;;;5109264;28;20051;-73
2022/01/09 03:01:49;;;;;;;6.70;3.07;;;-0.30;94.30;;;;;;5106973;28;20027;-73
2022/01/09 03:04:16;;;;;;;7.03;3.97;;;-0.40;94.80;;;;;;5110564;28;20035;-73
2022/01/09 03:06:42;;;;;;;6.57;3.63;;;-0.40;94.70;;;;;;5105503;28;20023;-73
2022/01/09 03:09:07;;;;;;;7.83;3.70;;;-0.30;94.70;;;;;;5110995;28;20389;-73
2022/01/09 03:11:33;;;;;;;8.63;3.30;;;-0.30;94.40;;;;;;5103945;28;20039;-74
2022/01/09 03:13:59;;;;;;;8.57;3.97;;;-0.40;94.40;;;;;;5104256;28;20138;-73
2022/01/09 03:16:25;;;;;;;7.13;3.47;;;-0.40;94.60;;;;;;5097442;28;20110;-74
2022/01/09 03:18:51;;;;;;;6.80;4.15;;;-0.50;94.20;;;;;;5110536;28;20020;-73
2022/01/09 03:21:16;;;;;;;4.77;2.17;;;-0.30;94.00;;;;;;5100264;28;20082;-73
2022/01/09 03:23:42;;;;;;;7.88;3.28;;;-0.40;94.20;;;;;;5102427;28;20496;-73
2022/01/09 03:26:09;;;;;;;7.13;3.65;;;-0.30;93.70;;;;;;5108917;28;20507;-73
2022/01/09 03:28:35;;;;;;;7.73;3.87;;;-0.10;93.30;;;;;;5108447;28;20028;-73
2022/01/09 03:31:01;;;;;;;8.02;4.05;;;-0.20;93.60;;;;;;5106291;28;20024;-73
2022/01/09 03:33:27;;;;;;;11.33;5.13;;;-0.30;94.80;;;;;;5109954;28;20092;-73
2022/01/09 03:35:52;;;;;;;8.83;5.07;;;-0.60;95.40;;;;;;5107847;28;20028;-73
2022/01/09 03:38:18;;;;;;;8.47;4.43;;;-0.60;95.90;;;;;;5109721;28;20028;-73
2022/01/09 03:40:44;;;;;;;7.67;3.10;;;-0.50;95.90;;;;;;5110487;28;20066;-73
2022/01/09 03:43:09;;;;;;;6.10;2.97;;;-0.50;95.50;;;;;;5104624;28;20096;-73
2022/01/09 03:45:35;;;;;;;7.80;3.10;;;-0.50;95.00;;;;;;5105508;28;20031;-73
2022/01/09 03:48:01;;;;;;;6.50;2.80;;;-0.50;94.70;;;;;;5107519;28;20061;-73
2022/01/09 03:50:27;;;;;;;5.27;2.40;;;-0.50;94.30;;;;;;5106967;28;20038;-73
2022/01/09 03:52:53;;;;;;;6.33;2.30;;;-0.30;94.20;;;;;;5108373;28;20036;-73
2022/01/09 03:55:21;;;;;;;5.07;2.57;;;-0.20;94.30;;;;;;5109899;28;20084;-73
2022/01/09 03:57:48;;;;;;;7.37;3.70;;;-0.20;94.40;;;;;;5107501;28;20059;-74
2022/01/09 04:00:17;;;;;;;5.97;3.17;;;-0.20;94.30;;;;;;5109556;28;20098;-71
2022/01/09 04:02:43;;;;;;;7.93;3.03;;;-0.20;93.80;;;;;;5102936;28;20028;-72
2022/01/09 04:05:09;;;;;;;5.30;2.70;;;-0.10;93.80;;;;;;5102164;28;20112;-72
2022/01/09 04:07:36;;;;;;;7.60;2.80;;;0.00;94.40;;;;;;5101592;28;20028;-72
2022/01/09 04:10:06;;;;;;;7.22;2.97;;;0.10;95.10;;;;;;5103708;28;20577;-72
2022/01/09 04:12:46;;;;;;;6.30;3.55;;;0.00;95.00;;;;;;5105276;27;20028;-72
2022/01/09 04:15:12;;;;;;;8.93;2.60;;;0.10;94.90;;;;;;5103570;28;20043;-72
2022/01/09 04:17:55;;;;;;;6.57;3.00;;;0.00;94.90;;;;;;5105166;28;20070;-72
2022/01/09 04:20:26;;;;;;;6.00;2.80;;;-0.10;94.80;;;;;;5092015;28;20027;-72
2022/01/09 04:22:52;;;;;;;8.75;3.03;;;-0.20;94.60;;;;;;5097600;28;20031;-72
2022/01/09 04:25:19;;;;;;;10.40;3.35;;;-0.10;94.00;;;;;;5098249;28;20031;-72
2022/01/09 04:27:47;;;;;;;6.13;3.10;;;0.00;93.70;;;;;;5095329;28;20027;-72
2022/01/09 04:30:13;;;;;;;7.72;3.58;;;0.10;93.70;;;;;;5108004;28;20032;-72
2022/01/09 04:32:40;;;;;;;5.60;2.83;;;0.00;93.60;;;;;;5108686;28;20023;-72
2022/01/09 04:35:06;;;;;;;7.40;3.03;;;0.10;93.20;;;;;;5105197;28;20020;-72
2022/01/09 04:37:33;;;;;;;7.93;3.13;;;0.20;93.30;;;;;;5108027;28;20050;-72
2022/01/09 04:39:59;;;;;;;6.97;3.30;;;0.10;93.70;;;;;;5106677;28;20036;-72
2022/01/09 04:42:33;;;;;;;7.95;3.80;;;0.00;94.20;;;;;;5107791;27;20027;-72
2022/01/09 04:44:59;;;;;;;6.75;3.25;;;0.00;94.10;;;;;;5104604;28;20568;-72
2022/01/09 04:47:25;;;;;;;6.03;3.63;;;0.00;93.90;;;;;;5106672;28;20028;-72
2022/01/09 04:49:51;;;;;;;5.10;3.10;;;0.00;94.20;;;;;;5102670;28;20035;-72
2022/01/09 04:52:20;;;;;;;5.40;2.83;;;0.00;94.50;;;;;;5099025;28;20020;-72
2022/01/09 04:54:46;;;;;;;6.30;3.55;;;-0.20;94.60;;;;;;5104797;27;20043;-72
2022/01/09 04:57:12;;;;;;;6.85;2.92;;;-0.10;94.40;;;;;;5106738;28;20036;-72
2022/01/09 04:59:38;;;;;;;7.27;3.10;;;0.00;93.90;;;;;;5102665;28;20190;-72
2022/01/09 05:02:05;;;;;;;4.93;2.30;;;0.00;94.20;;;;;;5099866;28;20122;-72
2022/01/09 05:04:30;;;;;;;5.97;2.40;;;0.00;93.70;;;;;;5104891;28;20043;-72
2022/01/09 05:06:56;;;;;;;4.90;2.27;;;0.00;93.80;;;;;;5105567;28;20069;-72
2022/01/09 05:09:22;;;;;;;4.78;2.33;;;0.00;93.70;;;;;;5105560;28;20027;-72
2022/01/09 05:11:47;;;;;;;6.28;2.60;;;0.10;93.40;;;;;;5104815;28;20038;-72
2022/01/09 05:14:13;;;;;;;52.33;36.57;;;0.20;93.50;;;;;;5102092;28;20539;-71
2022/01/09 05:16:42;;;;;;;115.00;103.13;;;0.10;94.20;;;;;;5097250;28;20038;-72
2022/01/09 05:19:17;;;;;;;29.87;25.83;;;-0.30;95.30;;;;;;5104301;28;20536;-72
2022/01/09 05:21:42;;;;;;;14.15;10.68;;;-0.30;95.60;;;;;;5104079;28;20027;-72
2022/01/09 05:24:08;;;;;;;10.88;6.57;;;-0.40;95.60;;;;;;5102854;28;20035;-72
2022/01/09 05:26:34;;;;;;;10.00;6.23;;;-0.30;95.60;;;;;;5105944;28;20118;-72
2022/01/09 05:29:00;;;;;;;8.80;4.33;;;-0.40;95.70;;;;;;5102292;28;20026;-72
2022/01/09 05:31:26;;;;;;;39.33;31.20;;;-0.40;95.70;;;;;;5104618;28;20043;-72
2022/01/09 05:33:52;;;;;;;7.13;5.70;;;-0.40;95.70;;;;;;5099530;28;20542;-72
2022/01/09 05:36:18;;;;;;;8.65;4.60;;;-0.30;95.20;;;;;;5105183;28;20119;-72
2022/01/09 05:38:44;;;;;;;6.37;3.33;;;-0.30;95.20;;;;;;5098689;28;20028;-72
2022/01/09 05:41:10;;;;;;;5.67;2.93;;;-0.40;95.00;;;;;;5098469;28;20062;-72
2022/01/09 05:43:36;;;;;;;6.82;2.72;;;-0.40;94.80;;;;;;5103687;28;20051;-72
2022/01/09 05:46:02;;;;;;;4.70;2.37;;;-0.20;94.20;;;;;;5100813;28;20028;-72
2022/01/09 05:48:27;;;;;;;5.90;3.00;;;-0.40;94.70;;;;;;5093356;28;20032;-72
2022/01/09 05:50:53;;;;;;;6.67;2.17;;;-0.40;94.70;;;;;;5100431;28;20057;-72
2022/01/09 05:53:19;;;;;;;4.82;2.28;;;-0.30;94.80;;;;;;5103918;28;20497;-72
2022/01/09 05:55:44;;;;;;;6.72;2.92;;;-0.30;94.20;;;;;;5104685;28;20028;-72
2022/01/09 05:58:11;;;;;;;6.03;3.13;;;-0.20;93.80;;;;;;5102767;28;20027;-72
2022/01/09 06:00:36;;;;;;;5.60;2.03;;;0.00;93.30;;;;;;5103523;28;20426;-72
2022/01/09 06:03:02;;;;;;;7.07;3.10;;;0.00;93.20;;;;;;5101824;28;20058;-72
2022/01/09 06:05:28;;;;;;;5.87;2.57;;;0.10;93.00;;;;;;5104691;28;20035;-72
2022/01/09 06:07:54;;;;;;;5.88;2.40;;;0.10;92.90;;;;;;5099904;28;20020;-72
2022/01/09 06:10:19;;;;;;;5.85;2.30;;;-0.10;93.40;;;;;;5103661;28;20594;-72
2022/01/09 06:12:45;;;;;;;6.10;2.50;;;-0.10;94.00;;;;;;5097030;28;20993;-72
2022/01/09 06:15:11;;;;;;;5.47;2.10;;;-0.30;94.20;;;;;;5102504;28;20410;-72
2022/01/09 06:17:41;;;;;;;6.32;2.97;;;-0.20;94.10;;;;;;5096171;28;20085;-72
2022/01/09 06:20:09;;;;;;;6.33;2.53;;;-0.20;93.80;;;;;;5097179;28;20027;-72
2022/01/09 06:22:35;;;;;;;5.60;2.47;;;-0.20;93.40;;;;;;5100433;28;20024;-72
2022/01/09 06:25:01;;;;;;;3.95;2.25;;;-0.20;93.50;;;;;;5098854;28;20410;-72
2022/01/09 06:27:26;;;;;;;4.93;2.03;;;-0.40;94.00;;;;;;5103761;28;20046;-73
2022/01/09 06:29:52;;;;;;;4.22;2.22;;;-0.50;94.10;;;;;;5103387;28;20035;-73
2022/01/09 06:32:18;;;;;;;4.15;2.20;;;-0.60;94.50;;;;;;5103586;28;20028;-72
2022/01/09 06:34:44;;;;;;;5.80;2.30;;;-0.60;94.40;;;;;;5093323;28;20028;-72
2022/01/09 06:37:12;;;;;;;4.70;2.10;;;-0.50;94.50;;;;;;5099281;28;20023;-72
2022/01/09 06:39:42;;;;;;;4.60;2.30;;;-0.60;94.80;;;;;;5102825;28;20028;-72
2022/01/09 06:42:08;;;;;;;4.40;2.17;;;-0.50;94.30;;;;;;5104671;27;20038;-72
2022/01/09 06:44:34;;;;;;;5.67;2.50;;;-0.30;93.90;;;;;;5101711;28;20027;-72
2022/01/09 06:47:00;;;;;;;4.07;2.00;;;-0.30;93.80;;;;;;5098231;28;20123;-72
2022/01/09 06:49:26;;;;;;;5.82;2.92;;;-0.10;93.30;;;;;;5100930;28;20724;-72
2022/01/09 06:51:52;;;;;;;6.10;3.20;;;0.00;93.10;;;;;;5101794;28;20031;-72
2022/01/09 06:54:17;;;;;;;5.87;2.90;;;-0.10;93.40;;;;;;5092654;28;20059;-72
2022/01/09 06:56:43;;;;;;;6.67;2.60;;;-0.20;93.70;;;;;;5095872;28;20057;-72
2022/01/09 06:59:09;;;;;;;5.53;2.70;;;-0.30;93.90;;;;;;5103068;28;20030;-72
2022/01/09 07:01:35;;;;;;;7.13;2.60;;;-0.20;94.20;;;;;;5099168;28;20506;-72
2022/01/09 07:04:01;;;;;;;12.05;6.43;;;-0.30;93.70;;;;;;5103027;28;20046;-72
2022/01/09 07:06:27;;;;;;;6.20;3.03;;;-0.20;93.30;;;;;;5098413;28;20089;-72
2022/01/09 07:08:53;;;;;;;5.15;2.50;;;-0.10;93.20;;;;;;5103895;28;20035;-72
2022/01/09 07:11:18;;;;;;;8.50;3.97;;;-0.10;93.30;;;;;;5095234;28;20031;-72
2022/01/09 07:13:44;;;;;;;5.17;2.93;;;-0.20;94.20;;;;;;5102286;28;20031;-72
2022/01/09 07:16:10;;;;;;;4.77;2.57;;;-0.30;94.90;;;;;;5103179;28;20032;-72
2022/01/09 07:18:35;;;;;;;6.40;2.40;;;-0.30;94.60;;;;;;5093839;28;20019;-72
2022/01/09 07:21:03;;;;;;;5.17;2.73;;;0.00;93.20;;;;;;5103172;28;20517;-72
2022/01/09 07:23:29;;;;;;;4.35;2.50;;;0.00;93.10;;;;;;5102496;28;20237;-72
2022/01/09 07:25:55;;;;;;;6.27;2.63;;;0.00;93.60;;;;;;5101887;28;20059;-72
2022/01/09 07:28:21;;;;;;;5.18;2.20;;;-0.30;94.40;;;;;;5089192;28;20063;-72
2022/01/09 07:30:47;;;;;;;5.97;2.40;;;-0.60;94.30;;;;;;5094377;28;20035;-71
2022/01/09 07:33:12;;;;;;;4.90;2.95;;;-0.60;94.70;;;;;;5101224;28;20449;-71
2022/01/09 07:35:38;;;;;;;4.95;2.60;;;-0.50;94.30;;;;;;5099007;28;20087;-72
2022/01/09 07:38:04;;;;;;;4.63;2.40;;;-0.40;94.10;;;;;;5107351;28;20031;-71
2022/01/09 07:40:30;;;;;;;7.18;2.45;;;-0.50;94.10;;;;;;5097019;28;20531;-71
2022/01/09 07:42:56;;;;;;;4.82;2.40;;;-0.40;94.10;;;;;;5096124;27;20106;-72
2022/01/09 07:45:24;;;;;;;6.47;3.07;;;-0.30;94.30;;;;;;5092407;28;20940;-71
2022/01/09 07:47:51;;;;;;;5.80;2.33;;;-0.40;94.80;;;;;;5094462;28;20027;-71
2022/01/09 07:50:17;;;;;;;5.93;2.97;;;-0.40;95.30;;;;;;5098080;28;20478;-72
2022/01/09 07:52:42;;;;;;;6.63;3.55;;;-0.40;95.30;;;;;;5093701;28;20031;-72
2022/01/09 07:55:10;;;;;;;4.72;2.60;;;-0.40;95.40;;;;;;5101621;28;20497;-72
2022/01/09 07:57:36;;;;;;;6.45;3.00;;;-0.40;95.80;;;;;;5102674;28;20024;-72
2022/01/09 08:00:06;;;;;;;5.70;2.53;;;-0.50;96.10;;;;;;5101208;28;21022;-72
2022/01/09 08:02:31;;;;;;;8.18;3.53;;;-0.40;96.00;;;;;;5100791;28;20038;-72
2022/01/09 08:04:57;;;;;;;4.88;2.25;;;-0.30;95.90;;;;;;5101862;28;20032;-72
2022/01/09 08:07:23;;;;;;;5.07;2.17;;;-0.10;94.50;;;;;;5096040;28;20128;-72
2022/01/09 08:09:49;;;;;;;4.88;2.50;;;0.10;94.00;;;;;;5095934;28;20102;-72
2022/01/09 08:12:15;;;;;;;5.28;2.40;;;0.30;92.80;;;;;;5093001;28;20028;-72
2022/01/09 08:14:45;;;;;;;4.75;2.53;;;0.40;92.90;;;;;;5089653;28;20073;-72
2022/01/09 08:17:12;;;;;;;5.10;2.30;;;0.50;92.50;;;;;;5087289;28;20022;-72
2022/01/09 08:19:38;;;;;;;6.47;2.20;;;0.50;92.40;;;;;;5092089;28;20506;-71
2022/01/09 08:22:05;;;;;;;5.22;2.28;;;0.60;93.50;;;;;;5093455;28;20111;-72
2022/01/09 08:24:32;;;;;;;4.30;2.10;;;0.50;92.80;;;;;;5094401;28;20032;-71
2022/01/09 08:26:58;;;;;;;6.22;2.92;;;0.60;92.70;;;;;;5090225;28;20024;-72
2022/01/09 08:29:24;;;;;;;6.88;4.13;;;0.60;93.20;;;;;;5089932;28;20038;-72
2022/01/09 08:31:50;;;;;;;8.10;4.10;;;0.20;94.50;;;;;;5090944;28;20031;-71
2022/01/09 08:34:16;;;;;;;9.93;5.53;;;0.00;94.80;;;;;;5092093;28;20501;-72
2022/01/09 08:36:42;;;;;;;8.15;4.60;;;-0.10;95.00;;;;;;5090036;28;20024;-70
2022/01/09 08:39:10;;;;;;;8.68;4.28;;;0.00;95.40;;;;;;5091459;28;20546;-71
2022/01/09 08:41:36;;;;;;;8.60;4.60;;;-0.10;95.20;;;;;;5102100;28;20032;-71
2022/01/09 08:44:02;;;;;;;7.70;3.35;;;0.00;95.20;;;;;;5100406;28;20047;-70
2022/01/09 08:46:28;;;;;;;7.65;3.40;;;0.10;95.20;;;;;;5101469;28;20020;-71
2022/01/09 08:48:54;;;;;;;6.17;3.23;;;0.20;94.60;;;;;;5100398;28;20409;-71
2022/01/09 08:51:20;;;;;;;5.75;2.72;;;0.20;94.00;;;;;;5094136;28;20028;-71
2022/01/09 08:53:50;;;;;;;7.07;2.63;;;0.40;93.60;;;;;;5089548;28;20048;-70
2022/01/09 08:56:18;;;;;;;6.05;2.72;;;0.40;93.80;;;;;;5098480;28;20035;-72
2022/01/09 08:58:44;;;;;;;5.00;2.58;;;0.50;93.60;;;;;;5099705;28;20034;-72
2022/01/09 09:01:10;;;;;;;5.40;2.28;;;0.70;94.00;;;;;;5097696;28;20036;-70
2022/01/09 09:03:40;;;;;;;6.53;2.50;;;0.70;92.70;;;;;;5096420;28;20039;-71
2022/01/09 09:06:07;;;;;;;5.97;2.42;;;1.10;93.20;;;;;;5104983;28;20036;-72
2022/01/09 09:08:34;;;;;;;4.70;2.10;;;0.90;91.40;;;;;;5102694;27;20058;-72
2022/01/09 09:10:59;;;;;;;4.10;2.03;;;0.90;91.40;;;;;;5089233;28;20020;-74
2022/01/09 09:13:25;;;;;;;4.18;1.73;;;1.00;91.20;;;;;;5101796;28;20043;-73
2022/01/09 09:15:51;;;;;;;7.22;4.28;;;0.90;91.00;;;;;;5092315;28;20035;-71
2022/01/09 09:18:16;;;;;;;5.90;2.90;;;0.60;93.10;;;;;;5102617;28;20523;-70
2022/01/09 09:20:44;;;;;;;7.85;3.80;;;0.50;92.50;;;;;;5099079;28;20036;-71
2022/01/09 09:23:10;;;;;;;13.05;5.75;;;0.40;93.90;;;;;;5099865;28;20035;-72
2022/01/09 09:25:36;;;;;;;6.03;3.22;;;0.20;94.70;;;;;;5101438;28;20032;-72
2022/01/09 09:28:02;;;;;;;5.75;1.90;;;0.30;93.70;;;;;;5101353;28;20085;-71
2022/01/09 09:30:28;;;;;;;4.63;2.63;;;0.70;91.90;;;;;;5103396;28;20038;-73
2022/01/09 09:32:54;;;;;;;5.57;3.47;;;0.90;92.00;;;;;;5101870;28;20031;-72
2022/01/09 09:35:20;;;;;;;7.78;4.18;;;1.00;92.30;;;;;;5104652;28;20152;-71
2022/01/09 09:37:46;;;;;;;11.95;4.93;;;1.00;93.40;;;;;;5099018;28;20497;-72
2022/01/09 09:40:12;;;;;;;13.43;5.43;;;0.70;94.00;;;;;;5099525;28;20537;-72
2022/01/09 09:42:38;;;;;;;8.95;4.60;;;0.60;93.90;;;;;;5095895;28;20035;-72
2022/01/09 09:45:06;;;;;;;9.02;4.53;;;0.50;93.60;;;;;;5104571;28;20024;-73
2022/01/09 09:47:34;;;;;;;8.57;5.15;;;0.80;94.00;;;;;;5096565;28;20020;-73
2022/01/09 09:50:00;;;;;;;15.63;11.18;;;0.70;94.00;;;;;;5097710;28;20035;-72
2022/01/09 09:52:26;;;;;;;12.27;6.38;;;0.90;94.10;;;;;;5091791;28;20109;-72
2022/01/09 09:54:53;;;;;;;12.20;7.05;;;0.90;94.00;;;;;;5092017;28;20646;-72
2022/01/09 09:57:19;;;;;;;7.78;4.72;;;0.90;93.90;;;;;;5093273;28;20035;-72
2022/01/09 09:59:45;;;;;;;7.03;3.40;;;1.00;93.80;;;;;;5098458;28;20851;-73
2022/01/09 10:02:13;;;;;;;9.00;5.15;;;1.20;93.60;;;;;;5097676;28;20023;-72
2022/01/09 10:05:01;;;;;;;7.43;4.53;;;1.10;93.50;;;;;;5105265;28;21251;-71
2022/01/09 10:07:28;;;;;;;8.13;4.70;;;1.20;93.00;;;;;;5097133;28;20102;-73
2022/01/09 10:09:55;;;;;;;9.00;4.60;;;1.30;93.00;;;;;;5104525;28;20031;-72
2022/01/09 10:12:26;;;;;;;11.88;5.28;;;1.50;93.30;;;;;;5105623;28;20031;-73
2022/01/09 10:14:54;;;;;;;7.13;4.13;;;1.50;93.50;;;;;;5095040;28;20561;-73
2022/01/09 10:17:20;;;;;;;9.40;5.22;;;1.50;93.80;;;;;;5094842;28;20543;-73
2022/01/09 10:19:50;;;;;;;9.30;5.20;;;1.50;94.00;;;;;;5104477;28;20032;-73
2022/01/09 10:22:37;;;;;;;6.80;4.40;;;1.40;93.60;;;;;;5106609;28;20047;-74
2022/01/09 10:25:21;;;;;;;9.18;4.93;;;1.40;93.30;;;;;;5103795;28;20551;-73
2022/01/09 10:27:48;;;;;;;13.45;5.75;;;1.50;93.70;;;;;;5107737;28;21804;-74
2022/01/09 10:30:15;;;;;;;11.45;6.05;;;1.80;93.60;;;;;;5094703;28;20030;-72
2022/01/09 10:32:41;;;;;;;10.93;6.05;;;1.80;93.40;;;;;;5099190;28;20517;-71
2022/01/09 10:35:18;;;;;;;8.82;5.40;;;1.80;93.80;;;;;;5100023;28;20110;-73
2022/01/09 10:37:47;;;;;;;10.55;5.03;;;1.90;93.60;;;;;;5097230;28;20024;-72
2022/01/09 10:40:23;;;;;;;11.13;5.22;;;1.80;93.40;;;;;;5100337;28;20047;-73
2022/01/09 10:43:14;;;;;;;7.97;4.80;;;1.80;93.20;;;;;;5100500;28;20036;-73
2022/01/09 10:45:46;;;;;;;6.57;3.45;;;1.70;92.90;;;;;;5095942;28;20047;-72
2022/01/09 10:48:23;;;;;;;7.85;3.40;;;1.90;92.30;;;;;;5110516;28;20034;-73
2022/01/09 10:50:51;;;;;;;4.38;2.42;;;2.00;91.80;;;;;;5104347;28;20020;-75
2022/01/09 10:53:29;;;;;;;8.00;4.93;;;2.20;91.50;;;;;;5101335;27;20044;-74
2022/01/09 10:56:25;;;;;;;5.90;3.33;;;2.20;91.30;;;;;;5100912;28;20020;-75
2022/01/09 10:58:52;;;;;;;5.72;3.03;;;2.10;90.80;;;;;;5103588;28;20027;-75
2022/01/09 11:01:25;;;;;;;7.57;3.40;;;2.00;90.40;;;;;;5102035;28;20421;-74
2022/01/09 11:03:55;;;;;;;8.50;3.10;;;2.10;90.20;;;;;;5095547;28;20123;-74
2022/01/09 11:06:22;;;;;;;9.38;3.25;;;2.20;90.00;;;;;;5099987;28;20373;-74
2022/01/09 11:08:49;;;;;;;6.45;2.53;;;2.20;89.40;;;;;;5101879;28;20027;-77
2022/01/09 11:11:23;;;;;;;7.97;2.83;;;2.30;89.40;;;;;;5102519;28;21028;-77
2022/01/09 11:13:51;;;;;;;8.45;3.45;;;2.30;90.70;;;;;;5103055;28;20481;-77
2022/01/09 11:16:33;;;;;;;6.45;3.63;;;2.30;91.10;;;;;;5102850;28;20072;-77
2022/01/09 11:19:23;;;;;;;62.33;29.77;;;2.40;90.20;;;;;;5100768;28;20031;-78
2022/01/09 11:22:01;;;;;;;15.27;9.50;;;2.60;90.80;;;;;;5103477;28;20028;-79
2022/01/09 11:24:55;;;;;;;17.55;8.43;;;2.50;90.90;;;;;;5099989;28;20119;-76
2022/01/09 11:27:51;;;;;;;9.15;5.53;;;2.40;91.60;;;;;;5098790;28;20371;-76
2022/01/09 11:31:02;;;;;;;8.55;4.40;;;2.40;91.20;;;;;;5104449;27;20032;-75
2022/01/09 11:33:36;;;;;;;4.57;2.22;;;2.70;91.20;;;;;;5083079;28;20055;-75
2022/01/09 11:36:17;;;;;;;3.63;1.80;;;2.60;87.60;;;;;;5103505;28;20028;-74
2022/01/09 11:39:14;;;;;;;5.57;2.15;;;2.70;87.10;;;;;;5105408;28;20036;-76
2022/01/09 11:41:42;;;;;;;9.45;5.20;;;3.00;87.90;;;;;;5101975;28;20080;-75
2022/01/09 11:44:10;;;;;;;8.60;5.25;;;3.00;90.10;;;;;;5098587;28;20035;-76
2022/01/09 11:46:55;;;;;;;6.03;3.30;;;2.80;90.90;;;;;;5109267;28;20588;-75
2022/01/09 11:49:21;;;;;;;6.27;3.50;;;2.70;90.40;;;;;;5111202;28;20024;-75
2022/01/09 11:51:52;;;;;;;6.53;3.63;;;2.60;90.10;;;;;;5111744;28;20071;-76
2022/01/09 11:54:19;;;;;;;8.45;4.53;;;2.70;90.30;;;;;;5103035;28;20052;-76
2022/01/09 11:56:54;;;;;;;7.15;4.38;;;2.90;90.50;;;;;;5101637;28;20413;-76
2022/01/09 11:59:25;;;;;;;7.85;4.70;;;2.90;91.30;;;;;;5096766;28;20509;-76
2022/01/09 12:01:53;;;;;;;13.23;7.07;;;2.70;90.60;;;;;;5097360;28;20107;-78
2022/01/09 12:04:33;;;;;;;9.70;4.88;;;2.80;90.90;;;;;;5097015;28;20585;-76
2022/01/09 12:07:01;;;;;;;9.23;5.22;;;2.90;91.10;;;;;;5098286;28;20028;-77
2022/01/09 12:09:46;;;;;;;8.82;5.38;;;2.90;91.10;;;;;;5103730;28;20037;-76
2022/01/09 12:12:16;;;;;;;10.43;4.45;;;2.80;91.10;;;;;;5099498;28;20067;-74
2022/01/09 12:14:42;;;;;;;9.15;5.78;;;2.80;91.30;;;;;;5095188;28;20089;-77
2022/01/09 12:17:36;;;;;;;11.23;4.75;;;3.00;91.40;;;;;;5092277;28;20032;-75
2022/01/09 12:20:05;;;;;;;8.60;4.85;;;3.50;91.50;;;;;;5088458;28;20127;-83
2022/01/09 12:25:23;;;;;;;9.52;5.82;;;3.00;90.80;;;;;;5098226;28;20052;-79
2022/01/09 12:28:01;;;;;;;10.68;5.50;;;3.10;90.90;;;;;;5098667;28;20023;-79
2022/01/09 12:30:33;;;;;;;14.48;4.65;;;3.10;90.90;;;;;;5093628;28;20386;-77
2022/01/09 12:33:11;;;;;;;7.95;3.92;;;2.90;91.10;;;;;;5099736;28;20058;-76
2022/01/09 12:36:00;;;;;;;6.85;3.65;;;2.70;90.90;;;;;;5101412;28;20099;-77
2022/01/09 12:38:28;;;;;;;8.65;4.45;;;2.70;91.30;;;;;;5106867;28;20032;-77
2022/01/09 12:41:01;;;;;;;7.18;3.58;;;2.70;91.00;;;;;;5098374;28;20533;-74
2022/01/09 12:43:28;;;;;;;7.95;4.00;;;2.90;90.60;;;;;;5101746;28;20027;-79
2022/01/09 12:45:55;;;;;;;11.80;7.13;;;2.80;90.80;;;;;;5105908;28;20073;-80
2022/01/09 12:48:41;;;;;;;8.23;5.22;;;3.00;90.60;;;;;;5102242;28;20052;-80
2022/01/09 12:51:12;;;;;;;9.05;4.63;;;3.00;90.50;;;;;;5100600;28;20043;-79
2022/01/09 12:53:50;;;;;;;8.82;3.88;;;2.90;90.30;;;;;;5104157;28;20658;-81
2022/01/09 12:56:27;;;;;;;14.80;10.70;;;2.90;90.60;;;;;;5100133;28;20023;-79
2022/01/09 12:58:55;;;;;;;17.90;12.82;;;3.00;90.80;;;;;;5095860;28;20095;-76
2022/01/09 13:01:23;;;;;;;8.95;5.03;;;3.10;90.50;;;;;;5089696;28;20032;-76